Ada, Michigan
Current Conditions -  °F | °C
As of 10:53 PM on Friday 19 Dec 2014 (Local Time) from KGRR Reporting Station
Few Clouds Few Clouds  
Wind Chill: 21°   Ceiling: Unl
Heat Index: 21°   Visibility: 10mi
Dew Point: 17°   Wind: 3mph
Humidity: 85%   Direction: 160°SSE
Pressure: 30.26"   Gusts: NA
Location:  42.95°N, 85.49°W
Report Text: KGRR 200353Z 16003KT 10SM FEW220 M06/M08 A3026 RMK AO2 SLP261 T10611083
Loading
Personal Weather Stations






























Interactive Weather Map New forecast layout! Learn more

10-Day Weather Forecast

Advertisements
Track Severe Weather on mobile